createdAt,value
2023-01-28T00:00:56.065Z,6.90
2023-01-28T00:03:00.986Z,7.55
2023-01-28T00:05:05.901Z,7.53
2023-01-28T00:07:10.977Z,6.88
2023-01-28T00:09:16.133Z,6.72
2023-01-28T00:11:22.634Z,7.15
2023-01-28T00:13:30.510Z,5.95
2023-01-28T00:15:35.313Z,6.38
2023-01-28T00:17:49.615Z,5.35
2023-01-28T00:19:54.701Z,7.13
2023-01-28T00:22:00.036Z,6.72
2023-01-28T00:24:07.240Z,6.28
2023-01-28T00:26:15.971Z,6.43
2023-01-28T00:28:20.884Z,6.13
2023-01-28T00:30:28.338Z,7.20
2023-01-28T00:32:33.219Z,7.07
2023-01-28T00:34:38.307Z,7.30
2023-01-28T00:36:43.311Z,7.40
2023-01-28T00:38:52.825Z,7.25
2023-01-28T00:40:57.829Z,6.88
2023-01-28T00:43:05.731Z,7.38
2023-01-28T00:45:12.994Z,6.53
2023-01-28T00:47:23.786Z,7.63
2023-01-28T00:49:28.756Z,7.20
2023-01-28T00:51:36.392Z,6.63
2023-01-28T00:53:44.125Z,7.35
2023-01-28T00:55:48.984Z,6.30
2023-01-28T00:57:53.736Z,6.47
2023-01-28T00:59:58.649Z,7.50
2023-01-28T01:02:12.524Z,7.78
2023-01-28T01:04:27.687Z,7.53
2023-01-28T01:06:35.014Z,7.18
2023-01-28T01:08:52.334Z,7.53
2023-01-28T01:11:01.875Z,7.05
2023-01-28T01:13:10.529Z,7.05
2023-01-28T01:15:16.083Z,7.95
2023-01-28T01:17:22.003Z,7.90
2023-01-28T01:19:30.082Z,7.93
2023-01-28T01:21:35.011Z,7.45
2023-01-28T01:23:40.092Z,7.50
2023-01-28T01:25:46.665Z,6.90
2023-01-28T01:27:52.881Z,7.82
2023-01-28T01:29:59.082Z,7.88
2023-01-28T01:32:04.690Z,7.93
2023-01-28T01:34:09.616Z,7.00
2023-01-28T01:36:22.339Z,8.15
2023-01-28T01:38:27.876Z,8.75
2023-01-28T01:40:34.102Z,8.82
2023-01-28T01:42:38.895Z,9.23
2023-01-28T01:44:59.539Z,9.15
2023-01-28T01:47:04.326Z,9.05
2023-01-28T01:49:17.943Z,8.75
2023-01-28T01:51:28.650Z,8.55
2023-01-28T01:53:36.709Z,8.38
2023-01-28T01:55:43.993Z,8.35
2023-01-28T01:57:56.044Z,8.57
2023-01-28T02:00:06.726Z,8.30
2023-01-28T02:02:13.226Z,8.63
2023-01-28T02:04:23.228Z,9.00
2023-01-28T02:06:31.422Z,8.57
2023-01-28T02:08:36.551Z,7.07
2023-01-28T02:10:41.683Z,8.00
2023-01-28T02:12:51.628Z,7.47
2023-01-28T02:15:01.006Z,7.30
2023-01-28T02:17:06.327Z,7.78
2023-01-28T02:19:14.292Z,7.45
2023-01-28T02:21:45.282Z,7.40
2023-01-28T02:24:13.338Z,7.25
2023-01-28T02:26:51.557Z,7.63
2023-01-28T02:29:06.839Z,6.97
2023-01-28T02:31:18.590Z,7.45
2023-01-28T02:33:29.177Z,7.10
2023-01-28T02:35:38.481Z,6.90
2023-01-28T02:37:49.450Z,6.38
2023-01-28T02:39:57.414Z,7.97
2023-01-28T02:42:06.198Z,7.70
2023-01-28T02:44:13.788Z,6.90
2023-01-28T02:46:37.021Z,6.88
2023-01-28T02:48:42.221Z,7.20
2023-01-28T02:50:52.225Z,7.10
2023-01-28T02:53:23.573Z,7.25
2023-01-28T02:55:36.176Z,7.03
2023-01-28T02:57:46.135Z,6.53
2023-01-28T02:59:58.535Z,7.80
2023-01-28T03:02:09.695Z,5.55
2023-01-28T03:04:20.704Z,7.07
2023-01-28T03:06:28.517Z,6.75
2023-01-28T03:08:50.499Z,6.53
2023-01-28T03:11:08.279Z,6.47
2023-01-28T03:13:25.851Z,6.72
2023-01-28T03:15:49.816Z,6.28
2023-01-28T03:18:10.982Z,6.20
2023-01-28T03:20:28.768Z,6.85
2023-01-28T03:22:49.066Z,6.03
2023-01-28T03:25:08.328Z,6.97
2023-01-28T03:27:29.575Z,6.47
2023-01-28T03:29:47.572Z,5.80
2023-01-28T03:32:08.025Z,6.25
2023-01-28T03:34:26.107Z,5.90
2023-01-28T03:36:45.715Z,5.07
2023-01-28T03:38:51.988Z,5.65
2023-01-28T03:41:00.296Z,5.55
2023-01-28T03:43:05.317Z,4.70
2023-01-28T03:45:09.320Z,5.80
2023-01-28T03:47:21.184Z,5.20
2023-01-28T03:49:26.258Z,4.45
2023-01-28T03:51:31.309Z,4.60
2023-01-28T03:53:36.283Z,4.45
2023-01-28T03:55:41.619Z,5.20
2023-01-28T03:57:50.748Z,4.68
2023-01-28T03:59:56.077Z,6.20
2023-01-28T04:02:03.919Z,5.57
2023-01-28T04:04:23.862Z,5.18
2023-01-28T04:06:29.410Z,4.88
2023-01-28T04:08:34.444Z,5.15
2023-01-28T04:10:39.377Z,5.75
2023-01-28T04:12:47.587Z,6.28
2023-01-28T04:14:52.617Z,5.60
2023-01-28T04:16:57.952Z,6.00
2023-01-28T04:19:04.553Z,5.50
2023-01-28T04:21:12.649Z,5.03
2023-01-28T04:23:17.986Z,5.43
2023-01-28T04:25:23.403Z,5.40
2023-01-28T04:27:28.558Z,5.65
2023-01-28T04:29:33.577Z,5.93
2023-01-28T04:31:38.751Z,5.32
2023-01-28T04:33:43.656Z,5.40
2023-01-28T04:35:51.436Z,5.25
2023-01-28T04:37:59.019Z,5.25
2023-01-28T04:40:06.884Z,4.70
2023-01-28T04:42:11.901Z,5.18
2023-01-28T04:44:17.427Z,4.18
2023-01-28T04:46:22.364Z,5.70
2023-01-28T04:48:30.650Z,5.47
2023-01-28T04:50:35.366Z,4.82
2023-01-28T04:52:40.177Z,4.70
2023-01-28T04:54:47.931Z,4.85
2023-01-28T04:56:52.982Z,5.00
2023-01-28T04:58:58.152Z,5.60
2023-01-28T05:01:03.774Z,5.22
2023-01-28T05:03:08.695Z,5.30
2023-01-28T05:05:15.547Z,5.53
2023-01-28T05:07:20.794Z,5.22
2023-01-28T05:09:25.745Z,4.90
2023-01-28T05:11:33.449Z,5.05
2023-01-28T05:13:38.501Z,4.93
2023-01-28T05:15:45.999Z,5.38
2023-01-28T05:17:51.463Z,5.45
2023-01-28T05:19:57.185Z,4.82
2023-01-28T05:22:02.216Z,5.15
2023-01-28T05:24:08.321Z,5.85
2023-01-28T05:26:15.363Z,4.95
2023-01-28T05:28:22.959Z,5.05
2023-01-28T05:30:28.511Z,5.75
2023-01-28T05:32:33.607Z,5.03
2023-01-28T05:34:38.601Z,4.97
2023-01-28T05:36:43.909Z,4.95
2023-01-28T05:38:48.799Z,5.25
2023-01-28T05:40:53.649Z,5.45
2023-01-28T05:42:59.509Z,5.05
2023-01-28T05:45:07.729Z,4.15
2023-01-28T05:47:12.583Z,4.88
2023-01-28T05:49:17.319Z,4.80
2023-01-28T05:51:22.274Z,4.95
2023-01-28T05:53:27.262Z,5.20
2023-01-28T05:55:32.761Z,4.90
2023-01-28T05:57:40.058Z,4.97
2023-01-28T05:59:45.534Z,4.90
2023-01-28T06:01:53.407Z,4.68
2023-01-28T06:03:59.670Z,4.93
2023-01-28T06:06:04.900Z,5.15
2023-01-28T06:08:12.700Z,4.65
2023-01-28T06:10:21.004Z,5.70
2023-01-28T06:12:25.995Z,5.55
2023-01-28T06:14:30.854Z,5.25
2023-01-28T06:16:35.828Z,5.53
2023-01-28T06:18:45.222Z,5.10
2023-01-28T06:20:52.317Z,5.35
2023-01-28T06:22:57.655Z,4.90
2023-01-28T06:25:04.115Z,4.53
2023-01-28T06:27:09.271Z,5.25
2023-01-28T06:29:14.594Z,5.78
2023-01-28T06:31:19.457Z,5.03
2023-01-28T06:33:24.963Z,4.93
2023-01-28T06:35:34.806Z,5.05
2023-01-28T06:37:39.934Z,5.68
2023-01-28T06:39:45.591Z,4.63
2023-01-28T06:41:51.204Z,5.28
2023-01-28T06:43:56.078Z,5.80
2023-01-28T06:46:01.380Z,5.88
2023-01-28T06:48:08.793Z,5.55
2023-01-28T06:50:17.660Z,5.28
2023-01-28T06:52:25.399Z,5.05
2023-01-28T06:54:30.733Z,4.95
2023-01-28T06:56:36.053Z,6.38
2023-01-28T06:58:40.909Z,5.30
2023-01-28T07:00:46.458Z,4.95
2023-01-28T07:02:51.335Z,5.20
2023-01-28T07:04:56.091Z,5.60
2023-01-28T07:07:01.031Z,6.13
2023-01-28T07:09:08.643Z,5.20
2023-01-28T07:11:13.891Z,5.85
2023-01-28T07:13:19.003Z,5.80
2023-01-28T07:15:23.933Z,5.55
2023-01-28T07:17:29.573Z,5.72
2023-01-28T07:19:34.464Z,5.82
2023-01-28T07:21:39.501Z,5.93
2023-01-28T07:23:46.790Z,6.75
2023-01-28T07:25:54.220Z,6.45
2023-01-28T07:27:59.419Z,6.20
2023-01-28T07:30:04.242Z,5.88
2023-01-28T07:32:09.112Z,6.70
2023-01-28T07:34:14.454Z,5.72
2023-01-28T07:36:19.323Z,6.90
2023-01-28T07:38:27.119Z,7.13
2023-01-28T07:40:32.625Z,6.70
2023-01-28T07:42:40.840Z,6.57
2023-01-28T07:44:45.840Z,7.72
2023-01-28T07:46:51.046Z,7.05
2023-01-28T07:48:55.902Z,7.28
2023-01-28T07:51:02.210Z,6.75
2023-01-28T07:53:07.828Z,7.32
2023-01-28T07:55:18.372Z,7.55
2023-01-28T07:57:23.639Z,6.88
2023-01-28T07:59:31.307Z,7.00
2023-01-28T08:01:36.176Z,7.53
2023-01-28T08:03:44.809Z,7.22
2023-01-28T08:05:51.706Z,7.50
2023-01-28T08:07:56.902Z,7.40
2023-01-28T08:10:01.799Z,7.63
2023-01-28T08:12:07.180Z,6.70
2023-01-28T08:14:14.480Z,6.15
2023-01-28T08:16:22.331Z,7.55
2023-01-28T08:23:18.183Z,7.63
2023-01-28T08:25:23.516Z,7.22
2023-01-28T08:27:28.618Z,8.10
2023-01-28T08:29:35.283Z,7.82
2023-01-28T08:31:43.040Z,8.45
2023-01-28T08:33:51.455Z,8.32
2023-01-28T08:35:57.429Z,8.02
2023-01-28T08:38:02.961Z,8.07
2023-01-28T08:40:15.466Z,8.50
2023-01-28T08:42:21.130Z,7.60
2023-01-28T08:44:26.151Z,7.38
2023-01-28T08:46:31.339Z,7.93
2023-01-28T08:48:39.197Z,8.13
2023-01-28T08:50:44.240Z,8.38
2023-01-28T08:52:50.940Z,8.02
2023-01-28T08:54:57.421Z,8.25
2023-01-28T08:57:02.361Z,7.93
2023-01-28T08:59:07.693Z,7.70
2023-01-28T09:01:16.458Z,7.68
2023-01-28T09:03:24.352Z,7.72
2023-01-28T09:05:33.164Z,8.27
2023-01-28T09:07:39.907Z,9.27
2023-01-28T09:09:51.075Z,7.85
2023-01-28T09:11:56.051Z,8.15
2023-01-28T09:14:01.667Z,9.30
2023-01-28T09:16:11.777Z,7.38
2023-01-28T09:19:02.341Z,8.20
2023-01-28T09:21:12.769Z,7.82
2023-01-28T09:23:19.832Z,7.80
2023-01-28T09:25:25.118Z,8.57
2023-01-28T09:27:30.280Z,8.77
2023-01-28T09:29:38.123Z,8.98
2023-01-28T09:31:46.571Z,8.23
2023-01-28T09:33:56.933Z,9.07
2023-01-28T09:36:06.106Z,9.57
2023-01-28T09:38:13.943Z,7.65
2023-01-28T09:40:21.013Z,8.73
2023-01-28T09:42:41.662Z,9.00
2023-01-28T09:45:00.402Z,7.25
2023-01-28T09:47:06.261Z,8.93
2023-01-28T09:49:21.520Z,8.20
2023-01-28T09:51:34.222Z,8.95
2023-01-28T09:53:49.951Z,8.35
2023-01-28T09:55:59.490Z,7.70
2023-01-28T09:58:04.512Z,7.68
2023-01-28T10:00:16.221Z,8.20
2023-01-28T10:02:44.139Z,8.00
2023-01-28T10:04:59.581Z,8.50
2023-01-28T10:07:15.351Z,8.52
2023-01-28T10:09:45.603Z,7.82
2023-01-28T10:12:01.385Z,7.80
2023-01-28T10:14:14.065Z,8.00
2023-01-28T10:16:29.977Z,7.28
2023-01-28T10:18:38.639Z,7.63
2023-01-28T10:20:46.817Z,7.97
2023-01-28T10:22:55.625Z,7.28
2023-01-28T10:25:06.936Z,7.10
2023-01-28T10:27:16.751Z,7.70
2023-01-28T10:29:27.101Z,8.63
2023-01-28T10:31:35.941Z,7.78
2023-01-28T10:33:43.132Z,7.88
2023-01-28T10:35:51.773Z,8.65
2023-01-28T10:38:02.499Z,7.20
2023-01-28T10:40:16.033Z,7.55
2023-01-28T10:44:00.590Z,7.30
2023-01-28T10:46:10.927Z,7.38
2023-01-28T10:48:23.191Z,8.02
2023-01-28T10:50:30.566Z,6.80
2023-01-28T10:52:35.735Z,8.27
2023-01-28T10:54:40.735Z,6.47
2023-01-28T10:56:47.098Z,6.22
2023-01-28T10:59:01.597Z,8.25
2023-01-28T11:01:11.436Z,7.93
2023-01-28T11:03:23.919Z,7.18
2023-01-28T11:05:30.974Z,7.53
2023-01-28T11:07:36.637Z,7.28
2023-01-28T11:09:41.855Z,8.13
2023-01-28T11:11:46.862Z,7.60
2023-01-28T11:13:54.528Z,7.70
2023-01-28T11:16:05.531Z,7.20
2023-01-28T11:18:24.879Z,7.20
2023-01-28T11:20:36.101Z,6.95
2023-01-28T11:22:48.707Z,7.20
2023-01-28T11:24:54.533Z,7.20
2023-01-28T11:27:02.309Z,6.93
2023-01-28T11:29:09.413Z,5.93
2023-01-28T11:31:19.938Z,6.60
2023-01-28T11:33:29.291Z,6.43
2023-01-28T11:35:35.315Z,6.90
2023-01-28T11:37:40.946Z,5.63
2023-01-28T11:39:49.017Z,5.70
2023-01-28T11:41:55.920Z,6.05
2023-01-28T11:44:02.462Z,6.63
2023-01-28T11:46:29.044Z,5.93
2023-01-28T11:48:47.751Z,6.18
2023-01-28T11:50:59.755Z,5.53
2023-01-28T11:53:25.772Z,5.70
2023-01-28T11:55:48.735Z,5.50
2023-01-28T11:58:06.555Z,6.50
2023-01-28T12:00:38.138Z,6.00
2023-01-28T12:02:54.139Z,5.35
2023-01-28T12:05:20.625Z,6.38
2023-01-28T12:07:40.553Z,5.50
2023-01-28T12:09:55.495Z,6.55
2023-01-28T12:12:15.204Z,4.95
2023-01-28T12:14:30.841Z,5.70
2023-01-28T12:16:57.076Z,6.32
2023-01-28T12:19:23.236Z,6.10
2023-01-28T12:21:40.016Z,5.70
2023-01-28T12:24:03.549Z,5.95
2023-01-28T12:26:17.602Z,5.05
2023-01-28T12:28:35.751Z,5.65
2023-01-28T12:30:55.361Z,5.80
2023-01-28T12:33:17.591Z,5.35
2023-01-28T12:35:36.622Z,5.47
2023-01-28T12:37:56.620Z,5.45
2023-01-28T12:40:20.719Z,5.97
2023-01-28T12:42:34.621Z,5.60
2023-01-28T12:44:46.623Z,5.60
2023-01-28T12:46:57.436Z,6.57
2023-01-28T12:49:08.582Z,6.32
2023-01-28T12:51:23.374Z,5.72
2023-01-28T12:53:35.756Z,7.03
2023-01-28T12:55:46.691Z,6.22
2023-01-28T12:57:53.720Z,6.88
2023-01-28T13:00:21.903Z,6.18
2023-01-28T13:02:30.368Z,6.07
2023-01-28T13:04:43.275Z,6.63
2023-01-28T13:06:59.304Z,6.30
2023-01-28T13:09:13.715Z,5.45
2023-01-28T13:11:22.872Z,6.55
2023-01-28T13:13:33.982Z,6.65
2023-01-28T13:15:43.047Z,5.80
2023-01-28T13:17:57.848Z,5.43
2023-01-28T13:20:04.719Z,5.15
2023-01-28T13:22:31.743Z,5.63
2023-01-28T13:24:36.662Z,6.20
2023-01-28T13:26:48.090Z,5.82
2023-01-28T13:28:54.498Z,5.22
2023-01-28T13:31:06.710Z,5.95
2023-01-28T13:33:32.383Z,6.43
2023-01-28T13:35:40.675Z,5.93
2023-01-28T13:37:51.940Z,5.32
2023-01-28T13:40:05.354Z,5.63
2023-01-28T13:42:29.170Z,5.65
2023-01-28T13:44:37.469Z,5.10
2023-01-28T13:46:42.681Z,5.07
2023-01-28T13:48:52.371Z,5.10
2023-01-28T13:50:58.794Z,4.78
2023-01-28T13:53:20.630Z,4.38
2023-01-28T13:55:42.833Z,4.93
2023-01-28T13:58:22.777Z,5.50
2023-01-28T14:00:32.561Z,6.22
2023-01-28T14:02:58.592Z,5.28
2023-01-28T14:05:36.519Z,5.20
2023-01-28T14:07:59.193Z,5.65
2023-01-28T14:10:25.747Z,5.28
2023-01-28T14:12:52.281Z,5.50
2023-01-28T14:15:12.409Z,5.38
2023-01-28T14:17:31.581Z,5.55
2023-01-28T14:19:41.675Z,5.80
2023-01-28T14:21:46.689Z,4.90
2023-01-28T14:23:54.147Z,5.22
2023-01-28T14:26:12.567Z,4.85
2023-01-28T14:28:23.806Z,5.35
2023-01-28T14:30:36.214Z,5.03
2023-01-28T14:32:52.854Z,5.03
2023-01-28T14:34:59.593Z,5.22
2023-01-28T14:37:10.595Z,4.75
2023-01-28T14:39:21.992Z,6.28
2023-01-28T14:41:31.519Z,4.93
2023-01-28T14:43:36.859Z,5.88
2023-01-28T14:46:00.497Z,4.57
2023-01-28T14:48:28.489Z,4.95
2023-01-28T14:50:46.711Z,5.43
2023-01-28T14:53:13.088Z,4.40
2023-01-28T14:55:36.161Z,4.82
2023-01-28T14:57:53.311Z,4.03
2023-01-28T15:00:01.831Z,3.97
2023-01-28T15:02:20.152Z,3.65
2023-01-28T15:04:30.016Z,4.03
2023-01-28T15:06:38.793Z,4.18
2023-01-28T15:08:43.768Z,3.53
2023-01-28T15:10:49.209Z,3.47
2023-01-28T15:13:01.539Z,4.00
2023-01-28T15:15:17.439Z,3.97
2023-01-28T15:17:29.674Z,3.28
2023-01-28T15:19:40.106Z,4.50
2023-01-28T15:21:46.942Z,4.70
2023-01-28T15:23:54.874Z,4.25
2023-01-28T15:26:07.304Z,5.88
2023-01-28T15:28:24.695Z,6.00
2023-01-28T15:30:33.015Z,4.72
2023-01-28T15:32:39.465Z,5.35
2023-01-28T15:34:52.125Z,5.28
2023-01-28T15:36:57.191Z,4.63
2023-01-28T15:39:03.471Z,4.53
2023-01-28T15:41:11.906Z,4.15
2023-01-28T15:43:24.901Z,4.35
2023-01-28T15:45:32.913Z,4.95
2023-01-28T15:47:40.938Z,5.07
2023-01-28T15:49:48.787Z,5.43
2023-01-28T15:51:54.775Z,5.15
2023-01-28T15:54:04.785Z,4.45
2023-01-28T15:56:12.313Z,5.00
2023-01-28T15:58:30.457Z,5.22
2023-01-28T16:00:36.384Z,4.43
2023-01-28T16:02:47.040Z,5.25
2023-01-28T16:05:03.437Z,4.25
2023-01-28T16:07:08.621Z,3.97
2023-01-28T16:09:24.774Z,5.22
2023-01-28T16:11:33.726Z,4.68
2023-01-28T16:13:46.873Z,5.35
2023-01-28T16:15:56.035Z,5.60
2023-01-28T16:18:00.982Z,6.68
2023-01-28T16:20:16.559Z,6.55
2023-01-28T16:22:24.972Z,6.57
2023-01-28T16:24:33.183Z,7.25
2023-01-28T16:26:40.983Z,6.35
2023-01-28T16:28:49.188Z,6.95
2023-01-28T16:30:54.172Z,6.55
2023-01-28T16:33:00.427Z,6.53
2023-01-28T16:35:07.176Z,6.28
2023-01-28T16:37:13.811Z,6.72
2023-01-28T16:39:19.256Z,6.65
2023-01-28T16:41:31.665Z,6.30
2023-01-28T16:43:36.795Z,6.00
2023-01-28T16:45:46.510Z,6.78
2023-01-28T16:47:52.081Z,6.80
2023-01-28T16:49:57.439Z,6.22
2023-01-28T16:52:04.099Z,4.95
2023-01-28T16:54:09.781Z,5.30
2023-01-28T16:56:30.443Z,5.85
2023-01-28T16:58:41.117Z,4.82
2023-01-28T17:00:48.902Z,4.78
2023-01-28T17:02:55.464Z,4.90
2023-01-28T17:05:03.485Z,5.25
2023-01-28T17:07:12.423Z,4.85
2023-01-28T17:09:18.609Z,5.78
2023-01-28T17:11:23.640Z,4.07
2023-01-28T17:13:29.186Z,4.88
2023-01-28T17:15:34.925Z,5.32
2023-01-28T17:17:43.502Z,5.72
2023-01-28T17:19:56.667Z,6.45
2023-01-28T17:24:10.741Z,6.53
2023-01-28T17:26:17.435Z,5.75
2023-01-28T17:28:24.976Z,5.82
2023-01-28T17:30:30.100Z,5.68
2023-01-28T17:32:36.524Z,5.18
2023-01-28T17:34:50.383Z,5.93
2023-01-28T17:36:57.646Z,5.13
2023-01-28T17:39:11.288Z,4.53
2023-01-28T17:41:17.782Z,5.95
2023-01-28T17:43:22.745Z,5.88
2023-01-28T17:45:27.880Z,4.72
2023-01-28T17:47:34.006Z,4.68
2023-01-28T17:49:39.356Z,4.78
2023-01-28T17:51:48.763Z,4.70
2023-01-28T17:53:56.822Z,4.97
2023-01-28T17:56:02.013Z,5.53
2023-01-28T17:58:07.347Z,4.97
2023-01-28T18:00:16.348Z,4.85
2023-01-28T18:02:23.991Z,4.75
2023-01-28T18:04:28.831Z,5.57
2023-01-28T18:06:35.881Z,5.60
2023-01-28T18:08:44.200Z,5.45
2023-01-28T18:10:51.290Z,6.15
2023-01-28T18:12:56.536Z,5.38
2023-01-28T18:15:01.535Z,6.60
2023-01-28T18:17:07.435Z,6.03
2023-01-28T18:19:12.406Z,5.93
2023-01-28T18:21:53.844Z,5.35
2023-01-28T18:24:01.579Z,5.15
2023-01-28T18:26:08.597Z,6.10
2023-01-28T18:28:14.051Z,6.18
2023-01-28T18:30:19.716Z,5.55
2023-01-28T18:32:25.442Z,5.97
2023-01-28T18:34:32.057Z,7.10
2023-01-28T18:36:38.565Z,7.57
2023-01-28T18:38:43.512Z,7.78
2023-01-28T18:40:58.058Z,5.68
2023-01-28T18:43:04.319Z,4.97
2023-01-28T18:45:10.680Z,5.78
2023-01-28T18:47:18.963Z,5.88
2023-01-28T18:49:23.909Z,7.28
2023-01-28T18:51:30.652Z,6.60
2023-01-28T18:53:40.613Z,6.10
2023-01-28T18:55:45.628Z,5.68
2023-01-28T18:57:53.550Z,6.05
2023-01-28T18:59:58.612Z,5.93
2023-01-28T19:02:04.668Z,6.82
2023-01-28T19:04:15.922Z,6.20
2023-01-28T19:06:21.049Z,7.05
2023-01-28T19:08:28.833Z,6.45
2023-01-28T19:10:33.918Z,5.70
2023-01-28T19:12:39.515Z,6.18
2023-01-28T19:14:47.747Z,5.90
2023-01-28T19:16:52.620Z,6.97
2023-01-28T19:19:00.775Z,8.18
2023-01-28T19:21:06.192Z,7.75
2023-01-28T19:23:12.991Z,7.78
2023-01-28T19:25:18.850Z,8.02
2023-01-28T19:27:23.717Z,8.40
2023-01-28T19:29:29.631Z,7.95
2023-01-28T19:31:37.654Z,8.27
2023-01-28T19:33:42.853Z,8.93
2023-01-28T19:35:50.536Z,8.93
2023-01-28T19:37:55.404Z,9.10
2023-01-28T19:40:00.331Z,9.07
2023-01-28T19:42:07.790Z,7.07
2023-01-28T19:44:13.655Z,9.27
2023-01-28T19:46:22.132Z,8.88
2023-01-28T19:48:29.657Z,9.40
2023-01-28T19:50:35.338Z,8.65
2023-01-28T19:52:41.577Z,8.93
2023-01-28T19:54:46.571Z,9.73
2023-01-28T19:56:51.920Z,11.15
2023-01-28T19:58:57.888Z,12.10
2023-01-28T20:01:07.883Z,11.32
2023-01-28T20:03:16.535Z,10.90
2023-01-28T20:05:26.149Z,11.20
2023-01-28T20:07:31.353Z,11.52
2023-01-28T20:09:36.558Z,10.82
2023-01-28T20:11:42.630Z,10.77
2023-01-28T20:13:49.789Z,12.05
2023-01-28T20:15:54.715Z,10.45
2023-01-28T20:18:05.059Z,11.93
2023-01-28T20:20:12.618Z,11.07
2023-01-28T20:22:20.662Z,10.90
2023-01-28T20:24:25.543Z,10.80
2023-01-28T20:26:32.578Z,11.00
2023-01-28T20:28:37.511Z,11.23
2023-01-28T20:30:44.734Z,11.57
2023-01-28T20:32:49.593Z,10.98
2023-01-28T20:34:55.691Z,10.95
2023-01-28T20:37:00.604Z,12.27
2023-01-28T20:39:09.432Z,12.20
2023-01-28T20:41:17.549Z,11.38
2023-01-28T20:43:22.761Z,11.60
2023-01-28T20:45:27.568Z,11.95
2023-01-28T20:47:32.469Z,11.02
2023-01-28T20:49:37.288Z,12.25
2023-01-28T20:51:42.451Z,11.45
2023-01-28T20:53:49.716Z,13.13
2023-01-28T20:56:05.527Z,11.50
2023-01-28T20:58:10.969Z,12.10
2023-01-28T21:00:18.564Z,11.43
2023-01-28T21:02:24.105Z,11.60
2023-01-28T21:04:29.921Z,10.63
2023-01-28T21:06:37.039Z,11.35
2023-01-28T21:08:41.967Z,11.63
2023-01-28T21:10:47.100Z,11.35
2023-01-28T21:12:57.653Z,11.40
2023-01-28T21:15:02.567Z,12.40
2023-01-28T21:17:07.564Z,13.02
2023-01-28T21:19:12.622Z,11.68
2023-01-28T21:21:21.789Z,14.20
2023-01-28T21:23:28.028Z,12.65
2023-01-28T21:25:35.921Z,13.75
2023-01-28T21:27:41.176Z,14.00
2023-01-28T21:29:48.982Z,12.90
2023-01-28T21:31:54.186Z,13.13
2023-01-28T21:34:01.488Z,12.27
2023-01-28T21:36:12.555Z,12.05
2023-01-28T21:38:21.035Z,13.23
2023-01-28T21:40:25.890Z,13.63
2023-01-28T21:42:32.696Z,14.35
2023-01-28T21:44:37.577Z,12.32
2023-01-28T21:46:48.198Z,12.85
2023-01-28T21:48:57.122Z,13.70
2023-01-28T21:51:20.450Z,13.88
2023-01-28T21:53:25.677Z,13.82
2023-01-28T21:55:30.626Z,13.02
2023-01-28T21:57:35.843Z,13.80
2023-01-28T21:59:40.677Z,12.52
2023-01-28T22:01:51.703Z,13.43
2023-01-28T22:03:58.114Z,11.98
2023-01-28T22:06:02.960Z,11.68
2023-01-28T22:08:09.678Z,13.90
2023-01-28T22:10:18.218Z,12.98
2023-01-28T22:12:23.343Z,11.98
2023-01-28T22:14:28.505Z,13.43
2023-01-28T22:16:33.611Z,14.77
2023-01-28T22:18:41.647Z,14.98
2023-01-28T22:20:47.753Z,13.07
2023-01-28T22:22:52.900Z,14.68
2023-01-28T22:24:57.854Z,13.35
2023-01-28T22:27:02.683Z,11.60
2023-01-28T22:29:09.656Z,12.02
2023-01-28T22:31:19.047Z,14.30
2023-01-28T22:33:27.405Z,14.85
2023-01-28T22:35:37.136Z,12.43
2023-01-28T22:37:42.200Z,11.25
2023-01-28T22:39:48.114Z,13.32
2023-01-28T22:41:53.193Z,13.45
2023-01-28T22:43:58.477Z,14.32
2023-01-28T22:46:04.271Z,13.68
2023-01-28T22:48:09.779Z,15.10
2023-01-28T22:50:16.093Z,12.40
2023-01-28T22:52:25.997Z,11.88
2023-01-28T22:54:31.378Z,12.40
2023-01-28T22:56:36.569Z,13.70
2023-01-28T22:58:42.438Z,13.43
2023-01-28T23:00:49.265Z,11.95
2023-01-28T23:02:54.123Z,12.63
2023-01-28T23:04:58.961Z,12.02
2023-01-28T23:07:06.248Z,10.18
2023-01-28T23:09:13.840Z,11.75
2023-01-28T23:11:25.804Z,14.55
2023-01-28T23:13:55.316Z,11.73
2023-01-28T23:16:12.630Z,10.43
2023-01-28T23:18:35.089Z,10.82
2023-01-28T23:20:54.648Z,12.15
2023-01-28T23:23:12.418Z,12.35
2023-01-28T23:25:20.985Z,13.10
2023-01-28T23:27:26.478Z,10.95
2023-01-28T23:29:32.366Z,12.07
2023-01-28T23:31:37.354Z,13.52
2023-01-28T23:33:42.648Z,14.00
2023-01-28T23:35:50.320Z,12.30
2023-01-28T23:37:57.551Z,12.60
2023-01-28T23:40:02.454Z,13.02
2023-01-28T23:42:23.708Z,12.35
2023-01-28T23:44:30.172Z,11.80
2023-01-28T23:46:39.873Z,12.43
2023-01-28T23:48:45.900Z,12.05
2023-01-28T23:50:56.932Z,13.27
2023-01-28T23:53:03.265Z,12.95
2023-01-28T23:55:14.124Z,11.80
2023-01-28T23:57:26.959Z,13.18
2023-01-28T23:59:31.689Z,11.48
